sensor_id;sensor_type;location;lat;lon;timestamp;P1;durP1;ratioP1;P2;durP2;ratioP2
56599;SDS011;51832;48.152;11.530;2023-12-28T00:01:04;2.40;;;1.60;;
56599;SDS011;51832;48.152;11.530;2023-12-28T00:06:05;1.98;;;1.25;;
56599;SDS011;51832;48.152;11.530;2023-12-28T00:11:06;1.80;;;1.40;;
56599;SDS011;51832;48.152;11.530;2023-12-28T00:16:06;1.80;;;1.45;;
56599;SDS011;51832;48.152;11.530;2023-12-28T00:21:07;2.17;;;1.40;;
56599;SDS011;51832;48.152;11.530;2023-12-28T00:26:07;2.15;;;1.30;;
56599;SDS011;51832;48.152;11.530;2023-12-28T00:31:09;1.98;;;1.40;;
56599;SDS011;51832;48.152;11.530;2023-12-28T00:36:09;1.67;;;1.58;;
56599;SDS011;51832;48.152;11.530;2023-12-28T00:41:10;2.20;;;1.65;;
56599;SDS011;51832;48.152;11.530;2023-12-28T00:46:10;2.85;;;1.58;;
56599;SDS011;51832;48.152;11.530;2023-12-28T00:51:11;2.53;;;1.85;;
56599;SDS011;51832;48.152;11.530;2023-12-28T00:56:11;2.42;;;1.45;;
56599;SDS011;51832;48.152;11.530;2023-12-28T01:01:11;1.45;;;1.35;;
56599;SDS011;51832;48.152;11.530;2023-12-28T01:06:12;3.55;;;1.77;;
56599;SDS011;51832;48.152;11.530;2023-12-28T01:11:12;2.13;;;1.40;;
56599;SDS011;51832;48.152;11.530;2023-12-28T01:16:13;2.08;;;1.60;;
56599;SDS011;51832;48.152;11.530;2023-12-28T01:21:13;3.90;;;1.60;;
56599;SDS011;51832;48.152;11.530;2023-12-28T01:26:14;2.47;;;1.38;;
56599;SDS011;51832;48.152;11.530;2023-12-28T01:31:14;1.80;;;1.30;;
56599;SDS011;51832;48.152;11.530;2023-12-28T01:36:16;2.72;;;1.60;;
56599;SDS011;51832;48.152;11.530;2023-12-28T01:41:21;2.50;;;1.70;;
56599;SDS011;51832;48.152;11.530;2023-12-28T01:46:22;2.88;;;1.35;;
56599;SDS011;51832;48.152;11.530;2023-12-28T01:51:23;2.22;;;1.48;;
56599;SDS011;51832;48.152;11.530;2023-12-28T01:56:24;2.22;;;1.63;;
56599;SDS011;51832;48.152;11.530;2023-12-28T02:01:25;3.28;;;1.70;;
56599;SDS011;51832;48.152;11.530;2023-12-28T02:06:26;2.38;;;1.50;;
56599;SDS011;51832;48.152;11.530;2023-12-28T02:11:27;2.65;;;1.67;;
56599;SDS011;51832;48.152;11.530;2023-12-28T02:16:36;3.55;;;2.92;;
56599;SDS011;51832;48.152;11.530;2023-12-28T02:21:45;4.35;;;1.70;;
56599;SDS011;51832;48.152;11.530;2023-12-28T02:26:47;3.17;;;1.85;;
56599;SDS011;51832;48.152;11.530;2023-12-28T02:31:53;2.55;;;1.60;;
56599;SDS011;51832;48.152;11.530;2023-12-28T02:37:01;2.00;;;1.63;;
56599;SDS011;51832;48.152;11.530;2023-12-28T02:42:02;2.10;;;1.20;;
56599;SDS011;51832;48.152;11.530;2023-12-28T02:47:03;1.92;;;1.58;;
56599;SDS011;51832;48.152;11.530;2023-12-28T02:52:04;1.63;;;1.20;;
56599;SDS011;51832;48.152;11.530;2023-12-28T02:57:04;2.10;;;1.35;;
56599;SDS011;51832;48.152;11.530;2023-12-28T03:02:05;2.35;;;1.40;;
56599;SDS011;51832;48.152;11.530;2023-12-28T03:07:07;1.52;;;1.30;;
56599;SDS011;51832;48.152;11.530;2023-12-28T03:12:08;1.87;;;1.27;;
56599;SDS011;51832;48.152;11.530;2023-12-28T03:17:08;1.55;;;1.27;;
56599;SDS011;51832;48.152;11.530;2023-12-28T03:22:09;1.77;;;1.10;;
56599;SDS011;51832;48.152;11.530;2023-12-28T03:27:10;1.70;;;1.13;;
56599;SDS011;51832;48.152;11.530;2023-12-28T03:32:11;1.38;;;1.15;;
56599;SDS011;51832;48.152;11.530;2023-12-28T03:37:11;1.65;;;1.10;;
56599;SDS011;51832;48.152;11.530;2023-12-28T03:42:13;2.58;;;1.35;;
56599;SDS011;51832;48.152;11.530;2023-12-28T03:47:14;1.58;;;1.17;;
56599;SDS011;51832;48.152;11.530;2023-12-28T03:52:14;1.40;;;1.20;;
56599;SDS011;51832;48.152;11.530;2023-12-28T03:57:14;1.42;;;1.10;;
56599;SDS011;51832;48.152;11.530;2023-12-28T04:02:15;1.23;;;1.13;;
56599;SDS011;51832;48.152;11.530;2023-12-28T04:07:15;1.90;;;1.20;;
56599;SDS011;51832;48.152;11.530;2023-12-28T04:12:16;2.65;;;0.90;;
56599;SDS011;51832;48.152;11.530;2023-12-28T04:17:16;1.42;;;1.00;;
56599;SDS011;51832;48.152;11.530;2023-12-28T04:22:17;1.35;;;1.10;;
56599;SDS011;51832;48.152;11.530;2023-12-28T04:27:17;0.80;;;0.68;;
56599;SDS011;51832;48.152;11.530;2023-12-28T04:32:18;1.45;;;1.00;;
56599;SDS011;51832;48.152;11.530;2023-12-28T04:37:18;1.00;;;0.82;;
56599;SDS011;51832;48.152;11.530;2023-12-28T04:42:19;2.72;;;1.00;;
56599;SDS011;51832;48.152;11.530;2023-12-28T04:47:19;1.15;;;0.88;;
56599;SDS011;51832;48.152;11.530;2023-12-28T04:52:20;0.90;;;0.90;;
56599;SDS011;51832;48.152;11.530;2023-12-28T04:57:20;2.08;;;1.00;;
56599;SDS011;51832;48.152;11.530;2023-12-28T05:02:21;1.98;;;1.10;;
56599;SDS011;51832;48.152;11.530;2023-12-28T05:07:21;1.20;;;0.90;;
56599;SDS011;51832;48.152;11.530;2023-12-28T05:12:21;1.30;;;1.08;;
56599;SDS011;51832;48.152;11.530;2023-12-28T05:17:22;1.83;;;1.05;;
56599;SDS011;51832;48.152;11.530;2023-12-28T05:22:22;2.20;;;1.08;;
56599;SDS011;51832;48.152;11.530;2023-12-28T05:27:23;1.67;;;1.10;;
56599;SDS011;51832;48.152;11.530;2023-12-28T05:32:23;1.23;;;0.90;;
56599;SDS011;51832;48.152;11.530;2023-12-28T05:37:24;2.83;;;0.98;;
56599;SDS011;51832;48.152;11.530;2023-12-28T05:42:24;1.80;;;0.90;;
56599;SDS011;51832;48.152;11.530;2023-12-28T05:47:25;1.77;;;0.98;;
56599;SDS011;51832;48.152;11.530;2023-12-28T05:52:25;1.50;;;1.08;;
56599;SDS011;51832;48.152;11.530;2023-12-28T05:57:25;1.90;;;1.10;;
56599;SDS011;51832;48.152;11.530;2023-12-28T06:02:29;1.08;;;0.88;;
56599;SDS011;51832;48.152;11.530;2023-12-28T06:07:30;1.10;;;1.00;;
56599;SDS011;51832;48.152;11.530;2023-12-28T06:12:30;2.50;;;0.98;;
56599;SDS011;51832;48.152;11.530;2023-12-28T06:17:31;1.00;;;0.90;;
56599;SDS011;51832;48.152;11.530;2023-12-28T06:22:31;1.15;;;1.00;;
56599;SDS011;51832;48.152;11.530;2023-12-28T06:27:32;1.40;;;1.05;;
56599;SDS011;51832;48.152;11.530;2023-12-28T06:32:32;1.23;;;1.13;;
56599;SDS011;51832;48.152;11.530;2023-12-28T06:37:33;1.33;;;0.90;;
56599;SDS011;51832;48.152;11.530;2023-12-28T06:42:33;1.83;;;1.10;;
56599;SDS011;51832;48.152;11.530;2023-12-28T06:47:34;1.92;;;1.10;;
56599;SDS011;51832;48.152;11.530;2023-12-28T06:52:34;1.83;;;1.10;;
56599;SDS011;51832;48.152;11.530;2023-12-28T06:57:34;2.50;;;1.05;;
56599;SDS011;51832;48.152;11.530;2023-12-28T07:02:35;2.00;;;1.13;;
56599;SDS011;51832;48.152;11.530;2023-12-28T07:07:35;1.40;;;0.90;;
56599;SDS011;51832;48.152;11.530;2023-12-28T07:12:36;1.63;;;1.15;;
56599;SDS011;51832;48.152;11.530;2023-12-28T07:17:37;1.25;;;1.10;;
56599;SDS011;51832;48.152;11.530;2023-12-28T07:22:39;2.10;;;1.20;;
56599;SDS011;51832;48.152;11.530;2023-12-28T07:27:39;2.75;;;1.30;;
56599;SDS011;51832;48.152;11.530;2023-12-28T07:32:41;1.58;;;1.10;;
56599;SDS011;51832;48.152;11.530;2023-12-28T07:37:42;1.50;;;1.20;;
56599;SDS011;51832;48.152;11.530;2023-12-28T07:42:42;1.80;;;1.20;;
56599;SDS011;51832;48.152;11.530;2023-12-28T07:47:43;1.45;;;1.20;;
56599;SDS011;51832;48.152;11.530;2023-12-28T07:52:44;2.05;;;1.35;;
56599;SDS011;51832;48.152;11.530;2023-12-28T07:57:46;1.30;;;1.20;;
56599;SDS011;51832;48.152;11.530;2023-12-28T08:02:47;1.55;;;1.25;;
56599;SDS011;51832;48.152;11.530;2023-12-28T08:07:47;2.88;;;1.27;;
56599;SDS011;51832;48.152;11.530;2023-12-28T08:12:48;1.83;;;1.40;;
56599;SDS011;51832;48.152;11.530;2023-12-28T08:17:48;3.08;;;1.60;;
56599;SDS011;51832;48.152;11.530;2023-12-28T08:22:49;1.63;;;1.40;;
56599;SDS011;51832;48.152;11.530;2023-12-28T08:27:49;2.70;;;1.38;;
56599;SDS011;51832;48.152;11.530;2023-12-28T08:32:50;4.05;;;1.20;;
56599;SDS011;51832;48.152;11.530;2023-12-28T08:37:50;2.25;;;1.50;;
56599;SDS011;51832;48.152;11.530;2023-12-28T08:42:50;1.67;;;1.30;;
56599;SDS011;51832;48.152;11.530;2023-12-28T08:47:51;1.98;;;1.00;;
56599;SDS011;51832;48.152;11.530;2023-12-28T08:52:51;2.90;;;1.20;;
56599;SDS011;51832;48.152;11.530;2023-12-28T08:57:52;2.80;;;1.13;;
56599;SDS011;51832;48.152;11.530;2023-12-28T09:02:53;2.97;;;1.05;;
56599;SDS011;51832;48.152;11.530;2023-12-28T09:07:53;1.48;;;1.10;;
56599;SDS011;51832;48.152;11.530;2023-12-28T09:12:54;3.13;;;1.40;;
56599;SDS011;51832;48.152;11.530;2023-12-28T09:17:55;1.80;;;1.38;;
56599;SDS011;51832;48.152;11.530;2023-12-28T09:22:56;2.17;;;1.10;;
56599;SDS011;51832;48.152;11.530;2023-12-28T09:27:57;1.85;;;1.38;;
56599;SDS011;51832;48.152;11.530;2023-12-28T09:32:57;2.50;;;1.30;;
56599;SDS011;51832;48.152;11.530;2023-12-28T09:37:58;2.72;;;1.10;;
56599;SDS011;51832;48.152;11.530;2023-12-28T09:48:18;3.28;;;1.40;;
56599;SDS011;51832;48.152;11.530;2023-12-28T09:53:21;3.38;;;1.30;;
56599;SDS011;51832;48.152;11.530;2023-12-28T09:58:23;1.98;;;1.10;;
56599;SDS011;51832;48.152;11.530;2023-12-28T10:03:23;2.15;;;1.15;;
56599;SDS011;51832;48.152;11.530;2023-12-28T10:08:24;1.90;;;1.20;;
56599;SDS011;51832;48.152;11.530;2023-12-28T10:13:25;1.33;;;0.95;;
56599;SDS011;51832;48.152;11.530;2023-12-28T10:18:25;1.98;;;1.08;;
56599;SDS011;51832;48.152;11.530;2023-12-28T10:23:26;2.45;;;1.38;;
56599;SDS011;51832;48.152;11.530;2023-12-28T10:28:27;1.63;;;1.20;;
56599;SDS011;51832;48.152;11.530;2023-12-28T10:33:27;1.10;;;1.00;;
56599;SDS011;51832;48.152;11.530;2023-12-28T10:38:28;1.40;;;1.10;;
56599;SDS011;51832;48.152;11.530;2023-12-28T10:43:38;1.95;;;1.17;;
56599;SDS011;51832;48.152;11.530;2023-12-28T10:48:46;2.25;;;1.15;;
56599;SDS011;51832;48.152;11.530;2023-12-28T11:09:30;1.23;;;1.02;;
56599;SDS011;51832;48.152;11.530;2023-12-28T11:14:31;1.65;;;1.20;;
56599;SDS011;51832;48.152;11.530;2023-12-28T11:19:33;2.70;;;0.90;;
56599;SDS011;51832;48.152;11.530;2023-12-28T11:24:35;1.63;;;1.20;;
56599;SDS011;51832;48.152;11.530;2023-12-28T11:29:36;1.27;;;0.95;;
56599;SDS011;51832;48.152;11.530;2023-12-28T11:34:37;1.23;;;0.90;;
56599;SDS011;51832;48.152;11.530;2023-12-28T11:39:37;2.33;;;1.10;;
56599;SDS011;51832;48.152;11.530;2023-12-28T11:44:43;1.50;;;1.00;;
56599;SDS011;51832;48.152;11.530;2023-12-28T11:49:44;2.10;;;1.05;;
56599;SDS011;51832;48.152;11.530;2023-12-28T11:54:49;1.90;;;1.23;;
56599;SDS011;51832;48.152;11.530;2023-12-28T11:59:53;2.25;;;0.88;;
56599;SDS011;51832;48.152;11.530;2023-12-28T12:04:56;3.15;;;1.10;;
56599;SDS011;51832;48.152;11.530;2023-12-28T12:10:01;2.42;;;1.15;;
56599;SDS011;51832;48.152;11.530;2023-12-28T12:15:02;1.52;;;1.00;;
56599;SDS011;51832;48.152;11.530;2023-12-28T12:20:03;1.45;;;1.08;;
56599;SDS011;51832;48.152;11.530;2023-12-28T12:25:04;1.83;;;1.00;;
56599;SDS011;51832;48.152;11.530;2023-12-28T12:30:06;2.58;;;1.00;;
56599;SDS011;51832;48.152;11.530;2023-12-28T12:35:07;1.00;;;0.90;;
56599;SDS011;51832;48.152;11.530;2023-12-28T12:40:08;1.85;;;0.98;;
56599;SDS011;51832;48.152;11.530;2023-12-28T12:45:09;3.20;;;1.50;;
56599;SDS011;51832;48.152;11.530;2023-12-28T12:50:09;2.55;;;1.35;;
56599;SDS011;51832;48.152;11.530;2023-12-28T12:55:11;2.00;;;1.27;;
56599;SDS011;51832;48.152;11.530;2023-12-28T13:00:12;1.75;;;1.23;;
56599;SDS011;51832;48.152;11.530;2023-12-28T13:05:13;2.83;;;1.13;;
56599;SDS011;51832;48.152;11.530;2023-12-28T13:10:13;1.67;;;1.10;;
56599;SDS011;51832;48.152;11.530;2023-12-28T13:15:14;1.95;;;1.10;;
56599;SDS011;51832;48.152;11.530;2023-12-28T13:20:14;2.88;;;1.40;;
56599;SDS011;51832;48.152;11.530;2023-12-28T13:25:15;4.25;;;3.00;;
56599;SDS011;51832;48.152;11.530;2023-12-28T13:30:15;1.55;;;1.20;;
56599;SDS011;51832;48.152;11.530;2023-12-28T13:35:16;2.33;;;1.55;;
56599;SDS011;51832;48.152;11.530;2023-12-28T13:40:18;2.50;;;1.50;;
56599;SDS011;51832;48.152;11.530;2023-12-28T13:45:18;2.58;;;1.27;;
56599;SDS011;51832;48.152;11.530;2023-12-28T13:50:19;2.17;;;1.10;;
56599;SDS011;51832;48.152;11.530;2023-12-28T13:55:20;2.42;;;1.50;;
56599;SDS011;51832;48.152;11.530;2023-12-28T14:00:20;6.78;;;1.80;;
56599;SDS011;51832;48.152;11.530;2023-12-28T14:05:20;1.92;;;1.10;;
56599;SDS011;51832;48.152;11.530;2023-12-28T14:10:23;2.80;;;1.53;;
56599;SDS011;51832;48.152;11.530;2023-12-28T14:15:23;1.58;;;1.10;;
56599;SDS011;51832;48.152;11.530;2023-12-28T14:20:24;1.58;;;1.20;;
56599;SDS011;51832;48.152;11.530;2023-12-28T14:25:25;5.00;;;1.30;;
56599;SDS011;51832;48.152;11.530;2023-12-28T14:30:26;2.10;;;1.50;;
56599;SDS011;51832;48.152;11.530;2023-12-28T14:35:27;2.15;;;1.30;;
56599;SDS011;51832;48.152;11.530;2023-12-28T14:40:28;1.90;;;1.30;;
56599;SDS011;51832;48.152;11.530;2023-12-28T14:45:28;2.20;;;1.40;;
56599;SDS011;51832;48.152;11.530;2023-12-28T14:50:29;3.10;;;1.25;;
56599;SDS011;51832;48.152;11.530;2023-12-28T14:55:29;1.73;;;1.33;;
56599;SDS011;51832;48.152;11.530;2023-12-28T15:00:30;1.75;;;1.13;;
56599;SDS011;51832;48.152;11.530;2023-12-28T15:05:30;4.53;;;2.22;;
56599;SDS011;51832;48.152;11.530;2023-12-28T15:10:31;2.75;;;1.48;;
56599;SDS011;51832;48.152;11.530;2023-12-28T15:15:32;2.58;;;1.10;;
56599;SDS011;51832;48.152;11.530;2023-12-28T15:20:32;2.08;;;1.58;;
56599;SDS011;51832;48.152;11.530;2023-12-28T15:25:33;1.75;;;1.50;;
56599;SDS011;51832;48.152;11.530;2023-12-28T15:30:33;4.03;;;1.23;;
56599;SDS011;51832;48.152;11.530;2023-12-28T15:35:37;1.90;;;1.20;;
56599;SDS011;51832;48.152;11.530;2023-12-28T15:40:38;2.13;;;1.10;;
56599;SDS011;51832;48.152;11.530;2023-12-28T15:45:39;2.30;;;1.10;;
56599;SDS011;51832;48.152;11.530;2023-12-28T15:50:39;1.58;;;1.15;;
56599;SDS011;51832;48.152;11.530;2023-12-28T15:55:39;4.82;;;2.28;;
56599;SDS011;51832;48.152;11.530;2023-12-28T16:00:40;1.52;;;1.08;;
56599;SDS011;51832;48.152;11.530;2023-12-28T16:05:43;3.00;;;1.27;;
56599;SDS011;51832;48.152;11.530;2023-12-28T16:10:43;1.95;;;1.38;;
56599;SDS011;51832;48.152;11.530;2023-12-28T16:15:44;3.58;;;1.30;;
56599;SDS011;51832;48.152;11.530;2023-12-28T16:20:45;1.60;;;1.50;;
56599;SDS011;51832;48.152;11.530;2023-12-28T16:25:45;2.28;;;1.50;;
56599;SDS011;51832;48.152;11.530;2023-12-28T16:30:46;2.33;;;1.77;;
56599;SDS011;51832;48.152;11.530;2023-12-28T16:35:46;2.97;;;2.15;;
56599;SDS011;51832;48.152;11.530;2023-12-28T16:40:47;2.13;;;1.50;;
56599;SDS011;51832;48.152;11.530;2023-12-28T16:45:48;4.40;;;2.00;;
56599;SDS011;51832;48.152;11.530;2023-12-28T16:50:49;2.20;;;1.60;;
56599;SDS011;51832;48.152;11.530;2023-12-28T16:55:49;2.17;;;1.80;;
56599;SDS011;51832;48.152;11.530;2023-12-28T17:00:50;2.25;;;1.40;;
56599;SDS011;51832;48.152;11.530;2023-12-28T17:05:50;2.58;;;1.30;;
56599;SDS011;51832;48.152;11.530;2023-12-28T17:10:51;2.42;;;1.38;;
56599;SDS011;51832;48.152;11.530;2023-12-28T17:15:52;1.83;;;1.40;;
56599;SDS011;51832;48.152;11.530;2023-12-28T17:20:52;1.75;;;1.60;;
56599;SDS011;51832;48.152;11.530;2023-12-28T17:31:04;4.05;;;2.15;;
56599;SDS011;51832;48.152;11.530;2023-12-28T17:36:09;2.47;;;1.60;;
56599;SDS011;51832;48.152;11.530;2023-12-28T17:41:12;2.50;;;1.85;;
56599;SDS011;51832;48.152;11.530;2023-12-28T17:51:37;2.00;;;1.70;;
56599;SDS011;51832;48.152;11.530;2023-12-28T17:56:40;1.88;;;1.63;;
56599;SDS011;51832;48.152;11.530;2023-12-28T18:01:40;1.70;;;1.45;;
56599;SDS011;51832;48.152;11.530;2023-12-28T18:06:41;2.35;;;1.63;;
56599;SDS011;51832;48.152;11.530;2023-12-28T18:11:41;4.85;;;2.13;;
56599;SDS011;51832;48.152;11.530;2023-12-28T18:16:42;4.10;;;1.90;;
56599;SDS011;51832;48.152;11.530;2023-12-28T18:21:42;2.67;;;1.55;;
56599;SDS011;51832;48.152;11.530;2023-12-28T18:26:42;3.47;;;1.90;;
56599;SDS011;51832;48.152;11.530;2023-12-28T18:31:45;8.75;;;2.30;;
56599;SDS011;51832;48.152;11.530;2023-12-28T18:36:46;2.45;;;1.85;;
56599;SDS011;51832;48.152;11.530;2023-12-28T18:41:48;3.95;;;2.03;;
56599;SDS011;51832;48.152;11.530;2023-12-28T18:46:49;2.47;;;1.70;;
56599;SDS011;51832;48.152;11.530;2023-12-28T18:51:50;1.92;;;1.70;;
56599;SDS011;51832;48.152;11.530;2023-12-28T18:56:50;2.35;;;1.85;;
56599;SDS011;51832;48.152;11.530;2023-12-28T19:01:51;3.20;;;2.03;;
56599;SDS011;51832;48.152;11.530;2023-12-28T19:06:52;3.20;;;2.15;;
56599;SDS011;51832;48.152;11.530;2023-12-28T19:11:52;2.58;;;1.80;;
56599;SDS011;51832;48.152;11.530;2023-12-28T19:16:53;3.47;;;1.80;;
56599;SDS011;51832;48.152;11.530;2023-12-28T19:21:53;2.60;;;2.05;;
56599;SDS011;51832;48.152;11.530;2023-12-28T19:26:53;3.63;;;1.90;;
56599;SDS011;51832;48.152;11.530;2023-12-28T19:31:54;3.33;;;1.95;;
56599;SDS011;51832;48.152;11.530;2023-12-28T19:36:55;2.85;;;2.17;;
56599;SDS011;51832;48.152;11.530;2023-12-28T19:41:55;3.10;;;2.00;;
56599;SDS011;51832;48.152;11.530;2023-12-28T19:46:56;3.10;;;2.45;;
56599;SDS011;51832;48.152;11.530;2023-12-28T19:51:56;4.15;;;2.50;;
56599;SDS011;51832;48.152;11.530;2023-12-28T19:56:57;4.65;;;2.42;;
56599;SDS011;51832;48.152;11.530;2023-12-28T20:01:57;3.13;;;1.90;;
56599;SDS011;51832;48.152;11.530;2023-12-28T20:06:58;2.47;;;1.70;;
56599;SDS011;51832;48.152;11.530;2023-12-28T20:11:59;2.75;;;1.70;;
56599;SDS011;51832;48.152;11.530;2023-12-28T20:16:59;3.70;;;1.90;;
56599;SDS011;51832;48.152;11.530;2023-12-28T20:22:00;3.35;;;2.40;;
56599;SDS011;51832;48.152;11.530;2023-12-28T20:27:00;3.17;;;2.20;;
56599;SDS011;51832;48.152;11.530;2023-12-28T20:32:01;3.30;;;2.53;;
56599;SDS011;51832;48.152;11.530;2023-12-28T20:37:01;3.42;;;2.40;;
56599;SDS011;51832;48.152;11.530;2023-12-28T20:42:03;3.35;;;2.20;;
56599;SDS011;51832;48.152;11.530;2023-12-28T20:47:03;5.32;;;2.50;;
56599;SDS011;51832;48.152;11.530;2023-12-28T20:52:05;4.35;;;3.17;;
56599;SDS011;51832;48.152;11.530;2023-12-28T20:57:05;4.78;;;3.60;;
56599;SDS011;51832;48.152;11.530;2023-12-28T21:02:06;6.57;;;3.75;;
56599;SDS011;51832;48.152;11.530;2023-12-28T21:07:06;5.32;;;3.72;;
56599;SDS011;51832;48.152;11.530;2023-12-28T21:12:08;5.47;;;2.75;;
56599;SDS011;51832;48.152;11.530;2023-12-28T21:17:09;2.83;;;2.13;;
56599;SDS011;51832;48.152;11.530;2023-12-28T21:22:10;4.38;;;2.55;;
56599;SDS011;51832;48.152;11.530;2023-12-28T21:27:10;2.67;;;1.95;;
56599;SDS011;51832;48.152;11.530;2023-12-28T21:32:11;2.25;;;1.95;;
56599;SDS011;51832;48.152;11.530;2023-12-28T21:37:12;3.53;;;2.20;;
56599;SDS011;51832;48.152;11.530;2023-12-28T21:42:13;2.92;;;2.00;;
56599;SDS011;51832;48.152;11.530;2023-12-28T21:47:13;2.33;;;1.80;;
56599;SDS011;51832;48.152;11.530;2023-12-28T21:52:14;3.60;;;2.15;;
56599;SDS011;51832;48.152;11.530;2023-12-28T21:57:15;2.85;;;1.95;;
56599;SDS011;51832;48.152;11.530;2023-12-28T22:02:15;4.22;;;1.77;;
56599;SDS011;51832;48.152;11.530;2023-12-28T22:07:16;2.92;;;2.15;;
56599;SDS011;51832;48.152;11.530;2023-12-28T22:12:16;4.15;;;2.13;;
56599;SDS011;51832;48.152;11.530;2023-12-28T22:17:17;3.10;;;1.70;;
56599;SDS011;51832;48.152;11.530;2023-12-28T22:22:18;1.70;;;1.50;;
56599;SDS011;51832;48.152;11.530;2023-12-28T22:27:18;2.03;;;1.42;;
56599;SDS011;51832;48.152;11.530;2023-12-28T22:32:18;3.15;;;1.80;;
56599;SDS011;51832;48.152;11.530;2023-12-28T22:37:19;2.65;;;1.55;;
56599;SDS011;51832;48.152;11.530;2023-12-28T22:42:19;2.33;;;1.17;;
56599;SDS011;51832;48.152;11.530;2023-12-28T22:47:20;5.40;;;2.75;;
56599;SDS011;51832;48.152;11.530;2023-12-28T22:52:23;4.35;;;1.67;;
56599;SDS011;51832;48.152;11.530;2023-12-28T22:57:24;2.05;;;1.42;;
56599;SDS011;51832;48.152;11.530;2023-12-28T23:02:24;1.98;;;1.30;;
56599;SDS011;51832;48.152;11.530;2023-12-28T23:07:25;2.45;;;1.60;;
56599;SDS011;51832;48.152;11.530;2023-12-28T23:12:26;1.67;;;1.50;;
56599;SDS011;51832;48.152;11.530;2023-12-28T23:17:26;1.85;;;1.50;;
56599;SDS011;51832;48.152;11.530;2023-12-28T23:22:27;2.40;;;1.60;;
56599;SDS011;51832;48.152;11.530;2023-12-28T23:27:29;2.50;;;1.48;;
56599;SDS011;51832;48.152;11.530;2023-12-28T23:32:30;2.30;;;1.70;;
56599;SDS011;51832;48.152;11.530;2023-12-28T23:37:31;2.40;;;1.70;;
56599;SDS011;51832;48.152;11.530;2023-12-28T23:42:31;1.83;;;1.45;;
56599;SDS011;51832;48.152;11.530;2023-12-28T23:47:33;2.00;;;1.50;;
56599;SDS011;51832;48.152;11.530;2023-12-28T23:52:33;2.38;;;1.48;;
56599;SDS011;51832;48.152;11.530;2023-12-28T23:57:34;2.42;;;1.42;;
